Time;durP1;ratioP1;P1;durP2;ratioP2;P2;SDS_P1;SDS_P2;PMS_P1;PMS_P2;Temp;Humidity;BMP_temperature;BMP_pressure;BME280_temperature;BME280_humidity;BME280_pressure;Samples;Min_cycle;Max_cycle;Signal;HPM_P1;HPM_P2
2024/01/05 00:01:12;;;;;;;1.35;0.70;;;;;;;;;;5050545;28;20573;-85
2024/01/05 00:03:38;;;;;;;2.28;1.00;;;;;;;;;;5056890;28;20051;-84
2024/01/05 00:06:03;;;;;;;1.70;0.90;;;;;;;;;;5051128;28;20411;-84
2024/01/05 00:08:29;;;;;;;2.67;1.10;;;;;;;;;;5033058;28;20049;-84
2024/01/05 00:10:54;;;;;;;2.30;1.10;;;;;;;;;;5049425;28;20032;-85
2024/01/05 00:13:20;;;;;;;3.58;1.10;;;;;;;;;;5031407;28;20037;-84
2024/01/05 00:15:45;;;;;;;3.85;1.33;;;;;;;;;;5031469;28;20044;-85
2024/01/05 00:18:11;;;;;;;2.28;1.20;;;;;;;;;;5048814;28;20033;-85
2024/01/05 00:20:36;;;;;;;3.53;1.27;;;;;;;;;;5049492;28;20107;-85
2024/01/05 00:23:03;;;;;;;2.00;1.10;;;;;;;;;;5055318;28;20047;-85
2024/01/05 00:25:28;;;;;;;1.80;1.10;;;;;;;;;;5058681;28;20037;-83
2024/01/05 00:27:54;;;;;;;2.92;1.10;;;;;;;;;;5052333;28;20044;-84
2024/01/05 00:30:19;;;;;;;2.92;1.00;;;;;;;;;;5049995;28;20045;-87
2024/01/05 00:32:45;;;;;;;1.95;1.15;;;;;;;;;;5046225;28;20479;-84
2024/01/05 00:35:10;;;;;;;2.38;1.30;;;;;;;;;;5028688;28;20036;-85
2024/01/05 00:37:36;;;;;;;3.65;1.30;;;;;;;;;;5031644;28;20041;-85
2024/01/05 00:40:03;;;;;;;2.60;1.17;;;;;;;;;;5049190;28;20045;-85
2024/01/05 00:42:28;;;;;;;4.50;1.17;;;;;;;;;;5046272;28;20025;-84
2024/01/05 00:44:54;;;;;;;1.67;1.05;;;;;;;;;;5052483;28;20033;-84
2024/01/05 00:47:19;;;;;;;1.83;1.30;;;;;;;;;;5050135;28;20037;-85
2024/01/05 00:49:45;;;;;;;3.45;1.30;;;;;;;;;;5049151;28;20502;-85
2024/01/05 00:52:12;;;;;;;2.50;1.50;;;;;;;;;;5048370;28;20021;-84
2024/01/05 00:54:38;;;;;;;2.95;1.40;;;;;;;;;;5049161;28;20033;-86
2024/01/05 00:57:04;;;;;;;2.60;1.20;;;;;;;;;;5027255;28;20043;-84
2024/01/05 00:59:29;;;;;;;2.53;1.17;;;;;;;;;;5032783;28;20064;-84
2024/01/05 01:01:55;;;;;;;2.03;1.08;;;;;;;;;;5053203;28;20100;-86
2024/01/05 01:04:20;;;;;;;1.63;1.13;;;;;;;;;;5047076;28;20025;-84
2024/01/05 01:06:46;;;;;;;2.33;1.30;;;;;;;;;;5056337;28;20029;-84
2024/01/05 01:09:12;;;;;;;2.85;1.40;;;;;;;;;;5027931;28;20499;-85
2024/01/05 01:11:37;;;;;;;2.28;1.23;;;;;;;;;;5047287;28;20045;-87
2024/01/05 01:14:03;;;;;;;2.92;1.35;;;;;;;;;;5034336;28;20406;-86
2024/01/05 01:16:28;;;;;;;2.95;1.10;;;;;;;;;;5046543;28;20024;-85
2024/01/05 01:18:54;;;;;;;2.45;1.10;;;;;;;;;;5019066;28;20029;-85
2024/01/05 01:21:19;;;;;;;2.58;1.20;;;;;;;;;;5029901;28;20116;-85
2024/01/05 01:23:45;;;;;;;2.20;1.27;;;;;;;;;;5048595;28;20444;-84
2024/01/05 01:26:10;;;;;;;2.03;1.15;;;;;;;;;;5055486;28;20025;-84
2024/01/05 01:28:36;;;;;;;1.98;1.20;;;;;;;;;;5031487;28;20124;-84
2024/01/05 01:31:02;;;;;;;2.25;1.08;;;;;;;;;;5046580;28;20029;-84
2024/01/05 01:33:27;;;;;;;2.70;1.15;;;;;;;;;;5031771;28;20041;-86
2024/01/05 01:35:52;;;;;;;2.40;1.30;;;;;;;;;;5052912;28;20025;-83
2024/01/05 01:38:18;;;;;;;2.78;1.10;;;;;;;;;;5039561;28;20194;-85
2024/01/05 01:40:47;;;;;;;1.73;1.05;;;;;;;;;;5050818;28;20029;-85
2024/01/05 01:43:25;;;;;;;1.67;1.05;;;;;;;;;;5050061;28;20037;-85
2024/01/05 01:45:56;;;;;;;2.45;1.10;;;;;;;;;;5036144;28;20052;-85
2024/01/05 01:48:23;;;;;;;2.22;1.10;;;;;;;;;;5051206;28;20040;-84
2024/01/05 01:50:50;;;;;;;2.17;1.00;;;;;;;;;;5031982;28;20383;-85
2024/01/05 01:53:18;;;;;;;1.77;1.10;;;;;;;;;;5028615;28;20493;-84
2024/01/05 01:55:45;;;;;;;2.17;1.25;;;;;;;;;;5048924;28;20033;-83
2024/01/05 01:58:12;;;;;;;1.33;0.88;;;;;;;;;;5047118;28;20055;-84
2024/01/05 02:00:38;;;;;;;2.20;1.00;;;;;;;;;;5038184;28;20517;-85
2024/01/05 02:03:03;;;;;;;2.97;1.10;;;;;;;;;;5035485;28;20115;-84
2024/01/05 02:05:29;;;;;;;2.22;1.15;;;;;;;;;;5031724;28;20036;-84
2024/01/05 02:07:56;;;;;;;2.28;1.20;;;;;;;;;;5051565;28;20037;-84
2024/01/05 02:10:22;;;;;;;2.17;1.17;;;;;;;;;;5029480;28;20560;-85
2024/01/05 02:12:47;;;;;;;3.22;1.00;;;;;;;;;;5053101;28;20028;-84
2024/01/05 02:15:13;;;;;;;2.20;1.00;;;;;;;;;;5030741;28;20510;-86
2024/01/05 02:17:39;;;;;;;2.22;1.00;;;;;;;;;;5030716;28;20041;-84
2024/01/05 02:20:05;;;;;;;1.67;1.00;;;;;;;;;;5052216;28;20052;-84
2024/01/05 02:22:33;;;;;;;2.38;1.02;;;;;;;;;;5038812;28;20039;-84
2024/01/05 02:24:59;;;;;;;1.58;1.02;;;;;;;;;;5030532;28;20071;-83
2024/01/05 02:27:25;;;;;;;1.20;0.88;;;;;;;;;;5045471;28;20033;-84
2024/01/05 02:29:51;;;;;;;2.65;1.00;;;;;;;;;;5052621;28;20449;-84
2024/01/05 02:32:17;;;;;;;1.83;0.82;;;;;;;;;;5018034;28;20070;-86
2024/01/05 02:34:42;;;;;;;4.00;1.10;;;;;;;;;;5049283;28;20496;-85
2024/01/05 02:37:09;;;;;;;2.10;0.80;;;;;;;;;;5047041;28;20029;-85
2024/01/05 02:39:34;;;;;;;2.10;0.95;;;;;;;;;;5035812;28;20044;-84
2024/01/05 02:42:00;;;;;;;1.88;1.10;;;;;;;;;;5037010;28;20508;-84
2024/01/05 02:44:25;;;;;;;2.25;0.90;;;;;;;;;;5055237;28;20032;-83
2024/01/05 02:46:51;;;;;;;1.70;0.88;;;;;;;;;;5044956;28;20072;-84
2024/01/05 02:49:16;;;;;;;1.38;0.80;;;;;;;;;;5045087;28;20041;-85
2024/01/05 02:51:42;;;;;;;1.35;0.90;;;;;;;;;;5051406;28;20033;-84
2024/01/05 02:54:09;;;;;;;2.25;1.00;;;;;;;;;;5051712;28;20040;-85
2024/01/05 02:56:34;;;;;;;1.40;0.90;;;;;;;;;;5049931;28;20082;-85
2024/01/05 02:59:04;;;;;;;3.15;1.00;;;;;;;;;;5048333;28;20029;-85
2024/01/05 03:01:30;;;;;;;2.13;0.90;;;;;;;;;;5030314;28;20451;-83
2024/01/05 03:03:57;;;;;;;2.42;0.90;;;;;;;;;;5049035;28;20036;-85
2024/01/05 03:06:23;;;;;;;1.92;0.93;;;;;;;;;;5047166;28;20487;-85
2024/01/05 03:08:49;;;;;;;3.30;0.80;;;;;;;;;;5026926;28;20491;-85
2024/01/05 03:11:14;;;;;;;1.48;0.90;;;;;;;;;;5045373;28;20043;-84
2024/01/05 03:13:41;;;;;;;3.25;1.17;;;;;;;;;;5035943;28;20036;-85
2024/01/05 03:16:06;;;;;;;2.10;0.85;;;;;;;;;;5035231;28;20030;-84
2024/01/05 03:18:32;;;;;;;2.38;0.88;;;;;;;;;;5048783;28;20032;-86
2024/01/05 03:20:57;;;;;;;1.45;0.88;;;;;;;;;;5035554;28;20037;-86
2024/01/05 03:23:23;;;;;;;1.20;0.77;;;;;;;;;;5015906;28;20067;-86
2024/01/05 03:25:50;;;;;;;1.42;0.85;;;;;;;;;;5048031;28;20050;-85
2024/01/05 03:28:16;;;;;;;2.00;0.80;;;;;;;;;;5027559;28;20029;-87
2024/01/05 03:30:42;;;;;;;2.38;0.85;;;;;;;;;;5027280;28;20461;-86
2024/01/05 03:33:08;;;;;;;2.78;0.90;;;;;;;;;;5053178;28;20057;-85
2024/01/05 03:35:33;;;;;;;1.88;0.80;;;;;;;;;;5050313;28;20021;-86
2024/01/05 03:37:59;;;;;;;1.30;0.80;;;;;;;;;;5048682;28;20399;-86
2024/01/05 03:40:24;;;;;;;1.90;0.98;;;;;;;;;;5047538;28;20134;-86
2024/01/05 03:42:50;;;;;;;1.77;0.73;;;;;;;;;;5055684;28;20128;-85
2024/01/05 03:45:16;;;;;;;1.58;1.00;;;;;;;;;;5032325;28;20547;-84
2024/01/05 03:47:41;;;;;;;0.90;0.70;;;;;;;;;;5046481;28;20045;-85
2024/01/05 03:50:07;;;;;;;1.60;0.82;;;;;;;;;;5044418;28;20044;-83
2024/01/05 03:52:33;;;;;;;1.40;0.70;;;;;;;;;;5027707;28;20048;-86
2024/01/05 03:54:58;;;;;;;1.70;0.70;;;;;;;;;;5034619;28;20025;-85
2024/01/05 03:57:24;;;;;;;1.90;0.63;;;;;;;;;;5030409;28;20041;-86
2024/01/05 03:59:50;;;;;;;0.82;0.63;;;;;;;;;;5046742;28;20033;-86
2024/01/05 04:02:16;;;;;;;1.90;0.82;;;;;;;;;;5051030;28;20044;-84
2024/01/05 04:04:42;;;;;;;1.23;0.63;;;;;;;;;;5049657;28;20029;-83
2024/01/05 04:07:08;;;;;;;1.10;0.60;;;;;;;;;;5047841;28;20429;-83
2024/01/05 04:09:34;;;;;;;4.38;0.90;;;;;;;;;;5044322;28;20098;-84
2024/01/05 04:12:00;;;;;;;1.88;0.75;;;;;;;;;;5026488;28;20033;-82
2024/01/05 04:14:26;;;;;;;1.67;0.77;;;;;;;;;;5051935;28;20037;-85
2024/01/05 04:16:51;;;;;;;1.85;0.63;;;;;;;;;;5036636;28;20026;-86
2024/01/05 04:19:17;;;;;;;1.55;0.60;;;;;;;;;;5044455;28;20112;-85
2024/01/05 04:21:43;;;;;;;2.17;0.80;;;;;;;;;;5044958;28;20056;-85
2024/01/05 04:24:08;;;;;;;1.10;0.70;;;;;;;;;;5036067;28;20033;-83
2024/01/05 04:26:35;;;;;;;3.30;0.90;;;;;;;;;;5047892;28;20040;-85
2024/01/05 04:29:01;;;;;;;1.00;0.50;;;;;;;;;;5038306;28;20044;-84
2024/01/05 04:31:27;;;;;;;0.90;0.47;;;;;;;;;;5045222;28;20032;-84
2024/01/05 04:33:54;;;;;;;2.22;0.70;;;;;;;;;;5039324;28;20088;-83
2024/01/05 04:36:19;;;;;;;0.98;0.70;;;;;;;;;;5055863;28;20490;-85
2024/01/05 04:38:45;;;;;;;0.60;0.40;;;;;;;;;;5011739;28;20040;-84
2024/01/05 04:41:12;;;;;;;1.17;0.75;;;;;;;;;;5047176;28;20372;-85
2024/01/05 04:43:38;;;;;;;1.05;0.70;;;;;;;;;;5048249;28;20121;-84
2024/01/05 04:46:05;;;;;;;1.25;0.73;;;;;;;;;;5046882;28;20123;-85
2024/01/05 04:48:30;;;;;;;3.55;0.57;;;;;;;;;;5047988;28;20096;-86
2024/01/05 04:50:56;;;;;;;1.45;0.70;;;;;;;;;;5047925;28;20075;-86
2024/01/05 04:53:21;;;;;;;1.30;0.80;;;;;;;;;;5049832;28;20451;-85
2024/01/05 04:55:47;;;;;;;1.42;0.60;;;;;;;;;;5049904;28;20036;-84
2024/01/05 04:58:12;;;;;;;2.75;0.60;;;;;;;;;;5032082;28;20040;-84
2024/01/05 05:00:38;;;;;;;0.90;0.70;;;;;;;;;;5034166;28;20048;-86
2024/01/05 05:03:03;;;;;;;1.55;0.60;;;;;;;;;;5054819;28;20056;-84
2024/01/05 05:05:29;;;;;;;0.93;0.70;;;;;;;;;;5054718;28;20033;-85
2024/01/05 05:07:54;;;;;;;1.75;0.80;;;;;;;;;;5036032;28;20052;-86
2024/01/05 05:10:22;;;;;;;1.73;0.80;;;;;;;;;;5053738;28;20474;-85
2024/01/05 05:12:48;;;;;;;2.22;0.70;;;;;;;;;;5052106;28;20041;-85
2024/01/05 05:15:13;;;;;;;1.70;0.90;;;;;;;;;;5049068;28;20033;-85
2024/01/05 05:17:39;;;;;;;1.88;0.80;;;;;;;;;;5055905;28;20029;-84
2024/01/05 05:20:05;;;;;;;1.45;0.75;;;;;;;;;;5051490;28;20036;-84
2024/01/05 05:22:30;;;;;;;1.48;0.70;;;;;;;;;;5049617;28;20029;-84
2024/01/05 05:24:56;;;;;;;1.75;0.80;;;;;;;;;;5050070;28;20121;-86
2024/01/05 05:27:21;;;;;;;13.88;6.60;;;;;;;;;;5052216;28;20079;-86
2024/01/05 05:29:47;;;;;;;1.98;1.15;;;;;;;;;;5049326;28;20095;-83
2024/01/05 05:32:13;;;;;;;0.68;0.60;;;;;;;;;;5032670;28;20021;-86
2024/01/05 05:34:40;;;;;;;1.23;0.70;;;;;;;;;;5048655;28;20033;-84
2024/01/05 05:37:06;;;;;;;1.67;0.80;;;;;;;;;;5036859;28;20114;-85
2024/01/05 05:39:32;;;;;;;2.17;0.80;;;;;;;;;;5051699;28;20040;-84
2024/01/05 05:41:57;;;;;;;2.30;0.82;;;;;;;;;;5049142;28;20021;-85
2024/01/05 05:44:22;;;;;;;0.65;0.60;;;;;;;;;;5049431;28;20041;-85
2024/01/05 05:46:48;;;;;;;0.70;0.60;;;;;;;;;;5053314;28;20036;-84
2024/01/05 05:49:13;;;;;;;1.85;0.73;;;;;;;;;;5047561;28;20028;-85
2024/01/05 05:51:39;;;;;;;0.82;0.70;;;;;;;;;;5049884;28;20045;-83
2024/01/05 05:54:05;;;;;;;0.80;0.73;;;;;;;;;;5056671;28;20029;-86
2024/01/05 05:56:30;;;;;;;4.45;0.80;;;;;;;;;;5026801;28;20110;-86
2024/01/05 05:58:55;;;;;;;0.90;0.70;;;;;;;;;;5051896;28;20518;-85
2024/01/05 06:01:23;;;;;;;1.17;0.70;;;;;;;;;;5046781;28;20465;-84
2024/01/05 06:03:49;;;;;;;1.13;0.73;;;;;;;;;;5050852;28;20035;-85
2024/01/05 06:06:22;;;;;;;1.88;0.80;;;;;;;;;;5046637;28;20029;-85
2024/01/05 06:08:48;;;;;;;2.65;0.88;;;;;;;;;;5029561;28;20608;-83
2024/01/05 06:11:18;;;;;;;1.52;0.75;;;;;;;;;;5030607;28;20025;-83
2024/01/05 06:13:44;;;;;;;1.35;0.70;;;;;;;;;;5051916;28;20033;-84
2024/01/05 06:16:10;;;;;;;1.13;0.70;;;;;;;;;;5050786;28;20383;-85
2024/01/05 06:18:35;;;;;;;2.40;0.90;;;;;;;;;;5046980;28;20086;-84
2024/01/05 06:21:01;;;;;;;1.23;0.70;;;;;;;;;;5031359;28;20513;-86
2024/01/05 06:23:26;;;;;;;1.25;0.70;;;;;;;;;;5035324;28;20028;-85
2024/01/05 06:25:52;;;;;;;2.13;0.70;;;;;;;;;;5048369;28;20090;-83
2024/01/05 06:28:17;;;;;;;0.82;0.70;;;;;;;;;;5048008;28;20027;-85
2024/01/05 06:30:43;;;;;;;36.28;14.55;;;;;;;;;;5051634;28;20083;-84
2024/01/05 06:33:09;;;;;;;24.30;11.18;;;;;;;;;;5035290;28;20016;-84
2024/01/05 06:35:35;;;;;;;2.20;1.25;;;;;;;;;;5030401;28;20396;-83
2024/01/05 06:38:00;;;;;;;4.07;1.88;;;;;;;;;;5050057;28;20028;-85
2024/01/05 06:40:25;;;;;;;4.32;2.10;;;;;;;;;;5046631;28;20041;-83
2024/01/05 06:42:51;;;;;;;7.90;3.50;;;;;;;;;;5046151;28;20037;-85
2024/01/05 06:45:16;;;;;;;6.97;3.13;;;;;;;;;;5050810;28;20100;-84
2024/01/05 06:47:42;;;;;;;3.35;1.80;;;;;;;;;;5030410;28;20108;-87
2024/01/05 06:50:08;;;;;;;2.80;1.42;;;;;;;;;;5049190;28;20044;-86
2024/01/05 06:52:34;;;;;;;2.80;1.48;;;;;;;;;;5053243;28;20029;-85
2024/01/05 06:55:00;;;;;;;5.75;2.33;;;;;;;;;;5036831;28;20068;-84
2024/01/05 06:57:28;;;;;;;3.83;1.60;;;;;;;;;;5047585;28;20436;-85
2024/01/05 06:59:53;;;;;;;2.05;1.02;;;;;;;;;;5019397;28;20640;-85
2024/01/05 07:02:19;;;;;;;1.95;0.80;;;;;;;;;;5046241;28;20060;-85
2024/01/05 07:04:44;;;;;;;1.13;0.70;;;;;;;;;;5048190;28;20033;-85
2024/01/05 07:07:10;;;;;;;1.08;0.80;;;;;;;;;;5049022;28;20029;-82
2024/01/05 07:09:35;;;;;;;1.60;0.98;;;;;;;;;;5034214;28;20045;-84
2024/01/05 07:12:01;;;;;;;0.80;0.70;;;;;;;;;;5055985;28;20044;-84
2024/01/05 07:14:28;;;;;;;2.78;0.73;;;;;;;;;;5049057;28;20033;-83
2024/01/05 07:16:58;;;;;;;1.55;0.80;;;;;;;;;;5033313;28;20048;-85
2024/01/05 07:19:24;;;;;;;1.13;0.80;;;;;;;;;;5050637;28;20032;-84
2024/01/05 07:21:50;;;;;;;2.88;0.70;;;;;;;;;;5023753;28;20044;-85
2024/01/05 07:24:16;;;;;;;3.05;1.00;;;;;;;;;;5043533;28;20106;-85
2024/01/05 07:26:45;;;;;;;2.15;0.90;;;;;;;;;;5028809;28;20041;-84
2024/01/05 07:29:10;;;;;;;1.90;0.82;;;;;;;;;;5049089;28;20051;-84
2024/01/05 07:31:36;;;;;;;2.78;0.85;;;;;;;;;;5040520;28;20056;-82
2024/01/05 07:34:02;;;;;;;2.28;0.90;;;;;;;;;;5058468;28;20410;-84
2024/01/05 07:36:28;;;;;;;2.67;0.98;;;;;;;;;;5056693;28;20488;-83
2024/01/05 07:38:58;;;;;;;3.63;1.17;;;;;;;;;;5019658;28;20568;-85
2024/01/05 07:41:25;;;;;;;2.47;1.08;;;;;;;;;;5049110;28;20041;-84
2024/01/05 07:43:50;;;;;;;2.05;1.00;;;;;;;;;;5045816;28;20090;-87
2024/01/05 07:46:16;;;;;;;2.20;1.08;;;;;;;;;;5049117;28;20033;-86
2024/01/05 07:48:42;;;;;;;2.17;1.00;;;;;;;;;;5036871;28;20041;-85
2024/01/05 07:51:08;;;;;;;2.25;1.30;;;;;;;;;;5048046;28;20035;-83
2024/01/05 07:53:34;;;;;;;3.08;1.30;;;;;;;;;;5039078;28;20033;-85
2024/01/05 07:56:02;;;;;;;2.50;1.38;;;;;;;;;;5055347;28;20037;-83
2024/01/05 07:58:28;;;;;;;2.58;1.17;;;;;;;;;;5049005;28;20035;-84
2024/01/05 08:00:54;;;;;;;3.53;1.55;;;;;;;;;;5054825;28;20033;-83
2024/01/05 08:03:21;;;;;;;2.75;1.17;;;;;;;;;;5049850;28;20048;-86
2024/01/05 08:05:47;;;;;;;2.75;1.20;;;;;;;;;;5035519;28;20109;-87
2024/01/05 08:08:13;;;;;;;2.83;1.30;;;;;;;;;;5038037;28;20133;-84
2024/01/05 08:10:38;;;;;;;2.00;0.90;;;;;;;;;;5048636;28;20602;-85
2024/01/05 08:13:03;;;;;;;2.88;1.00;;;;;;;;;;5049230;28;20033;-84
2024/01/05 08:15:29;;;;;;;3.67;1.75;;;;;;;;;;5054047;28;20090;-84
2024/01/05 08:17:56;;;;;;;7.95;3.40;;;;;;;;;;5037676;28;20033;-85
2024/01/05 08:20:22;;;;;;;21.60;9.68;;;;;;;;;;5047600;28;20402;-84
2024/01/05 08:22:47;;;;;;;8.40;4.25;;;;;;;;;;5047065;28;20123;-83
2024/01/05 08:25:14;;;;;;;23.70;9.27;;;;;;;;;;5045665;28;20037;-84
2024/01/05 08:27:39;;;;;;;59.92;22.83;;;;;;;;;;5028594;28;20068;-83
2024/01/05 08:30:07;;;;;;;21.55;8.07;;;;;;;;;;5054155;28;20021;-81
2024/01/05 08:32:33;;;;;;;7.63;3.60;;;;;;;;;;5046361;28;20037;-83
2024/01/05 08:34:59;;;;;;;6.80;3.03;;;;;;;;;;5066017;28;20029;-84
2024/01/05 08:37:25;;;;;;;4.20;1.92;;;;;;;;;;5061193;28;20087;-84
2024/01/05 08:39:50;;;;;;;4.18;1.77;;;;;;;;;;5059951;28;20028;-84
2024/01/05 08:42:16;;;;;;;5.25;1.80;;;;;;;;;;5045309;28;20027;-85
2024/01/05 08:44:42;;;;;;;3.42;1.60;;;;;;;;;;5060771;28;20526;-85
2024/01/05 08:47:07;;;;;;;4.47;1.90;;;;;;;;;;5049065;28;20029;-85
2024/01/05 08:49:36;;;;;;;5.35;2.00;;;;;;;;;;5061627;28;20231;-83
2024/01/05 08:52:02;;;;;;;2.83;1.60;;;;;;;;;;5058619;28;20043;-85
2024/01/05 08:54:27;;;;;;;4.55;2.28;;;;;;;;;;5046538;28;20037;-84
2024/01/05 08:56:53;;;;;;;4.18;1.67;;;;;;;;;;5060003;28;20029;-83
2024/01/05 08:59:18;;;;;;;5.78;2.80;;;;;;;;;;5059543;28;20033;-86
2024/01/05 09:01:44;;;;;;;2.60;1.55;;;;;;;;;;5057810;28;20116;-85
2024/01/05 09:04:10;;;;;;;2.55;1.20;;;;;;;;;;5058831;28;20029;-85
2024/01/05 09:06:39;;;;;;;1.77;1.30;;;;;;;;;;5037668;28;20040;-85
2024/01/05 09:09:05;;;;;;;1.75;1.00;;;;;;;;;;5039763;28;20035;-84
2024/01/05 09:11:31;;;;;;;2.75;1.33;;;;;;;;;;5052284;28;20124;-85
2024/01/05 09:13:56;;;;;;;2.72;1.60;;;;;;;;;;5054934;28;20048;-86
2024/01/05 09:16:22;;;;;;;3.30;1.90;;;;;;;;;;5057924;28;20410;-84
2024/01/05 09:18:49;;;;;;;5.53;1.83;;;;;;;;;;5054223;28;20033;-84
2024/01/05 09:21:15;;;;;;;2.63;1.27;;;;;;;;;;5052440;28;20033;-84
2024/01/05 09:23:41;;;;;;;2.45;1.50;;;;;;;;;;5060123;28;20028;-84
2024/01/05 09:26:16;;;;;;;5.60;1.60;;;;;;;;;;5050244;28;20049;-83
2024/01/05 09:28:42;;;;;;;2.88;1.48;;;;;;;;;;5044499;28;20033;-84
2024/01/05 09:31:08;;;;;;;5.88;1.90;;;;;;;;;;5034416;28;20055;-85
2024/01/05 09:33:33;;;;;;;4.40;1.20;;;;;;;;;;5030599;28;20044;-84
2024/01/05 09:35:59;;;;;;;2.08;1.25;;;;;;;;;;5042869;28;20029;-86
2024/01/05 09:38:25;;;;;;;2.80;1.35;;;;;;;;;;5036211;28;20032;-85
2024/01/05 09:40:52;;;;;;;3.97;1.80;;;;;;;;;;5014657;28;20234;-85
2024/01/05 09:43:21;;;;;;;6.50;3.03;;;;;;;;;;5036747;28;20037;-84
2024/01/05 09:45:50;;;;;;;7.35;3.22;;;;;;;;;;5029233;28;20410;-83
2024/01/05 09:48:18;;;;;;;4.47;2.30;;;;;;;;;;5040459;28;20063;-83
2024/01/05 09:50:50;;;;;;;4.18;1.60;;;;;;;;;;5032547;28;20060;-86
2024/01/05 09:53:17;;;;;;;4.00;1.60;;;;;;;;;;5051543;28;20043;-83
2024/01/05 09:55:49;;;;;;;9.60;4.57;;;;;;;;;;5055033;28;20041;-85
2024/01/05 09:58:16;;;;;;;6.50;2.90;;;;;;;;;;5055932;28;20067;-84
2024/01/05 10:00:49;;;;;;;5.10;2.53;;;;;;;;;;5054215;28;20071;-84
2024/01/05 10:03:22;;;;;;;2.95;1.77;;;;;;;;;;5039737;28;20044;-85
2024/01/05 10:05:53;;;;;;;;;;;;;;;;;;5056751;28;20120;-82
2024/01/05 10:08:22;;;;;;;7.55;3.58;;;;;;;;;;5050617;28;20083;-85
2024/01/05 10:11:02;;;;;;;10.90;4.57;;;;;;;;;;5052144;28;20442;-84
2024/01/05 10:13:28;;;;;;;7.60;3.10;;;;;;;;;;5050471;28;20070;-84
2024/01/05 10:16:02;;;;;;;6.30;3.42;;;;;;;;;;5056864;28;20037;-82
2024/01/05 10:18:28;;;;;;;5.07;2.67;;;;;;;;;;5056617;28;20954;-83
2024/01/05 10:20:57;;;;;;;4.80;2.60;;;;;;;;;;5048618;28;20490;-84
2024/01/05 10:23:24;;;;;;;3.58;2.20;;;;;;;;;;5036466;28;20043;-85
2024/01/05 10:25:51;;;;;;;2.00;1.08;;;;;;;;;;5050776;28;20086;-84
2024/01/05 10:28:23;;;;;;;2.65;1.40;;;;;;;;;;5035335;28;20037;-84
2024/01/05 10:30:49;;;;;;;2.28;1.20;;;;;;;;;;5051072;28;21388;-84
2024/01/05 10:33:16;;;;;;;2.05;1.40;;;;;;;;;;5052295;28;20052;-84
2024/01/05 10:35:42;;;;;;;3.38;1.30;;;;;;;;;;5054637;28;20498;-84
2024/01/05 10:38:10;;;;;;;2.30;1.27;;;;;;;;;;5056247;28;20036;-84
2024/01/05 10:40:36;;;;;;;3.35;1.20;;;;;;;;;;5049560;28;20358;-84
2024/01/05 10:43:09;;;;;;;2.67;1.27;;;;;;;;;;5048993;28;20510;-84
2024/01/05 10:45:36;;;;;;;2.60;1.40;;;;;;;;;;5049497;28;20503;-84
2024/01/05 10:48:08;;;;;;;2.03;1.20;;;;;;;;;;5050603;28;20029;-86
2024/01/05 10:50:36;;;;;;;3.13;1.20;;;;;;;;;;5033279;28;20071;-84
2024/01/05 10:53:03;;;;;;;2.17;1.20;;;;;;;;;;5026239;28;20036;-85
2024/01/05 10:55:32;;;;;;;2.53;1.40;;;;;;;;;;5030447;28;20065;-82
2024/01/05 10:57:58;;;;;;;3.15;1.80;;;;;;;;;;5028060;28;20486;-86
2024/01/05 11:00:24;;;;;;;2.22;1.38;;;;;;;;;;5032594;28;20035;-82
2024/01/05 11:02:52;;;;;;;2.08;1.40;;;;;;;;;;5056134;28;20032;-87
2024/01/05 11:05:20;;;;;;;2.42;1.40;;;;;;;;;;5049828;28;20140;-86
2024/01/05 11:07:48;;;;;;;1.80;1.20;;;;;;;;;;5052271;28;20041;-85
2024/01/05 11:10:25;;;;;;;2.10;1.17;;;;;;;;;;5052480;28;20029;-84
2024/01/05 11:13:15;;;;;;;2.10;1.00;;;;;;;;;;5051940;28;20033;-86
2024/01/05 11:15:50;;;;;;;2.03;1.30;;;;;;;;;;5037494;28;20029;-86
2024/01/05 11:18:43;;;;;;;3.72;2.20;;;;;;;;;;5040795;28;20132;-85
2024/01/05 11:21:48;;;;;;;3.63;2.07;;;;;;;;;;5052642;28;20029;-84
2024/01/05 11:24:15;;;;;;;4.28;2.53;;;;;;;;;;4957552;28;20046;-82
2024/01/05 11:26:44;;;;;;;4.95;1.80;;;;;;;;;;5031679;28;20041;-83
2024/01/05 11:29:33;;;;;;;9.15;2.42;;;;;;;;;;5051289;28;20115;-85
2024/01/05 11:31:59;;;;;;;2.90;1.67;;;;;;;;;;5051548;28;20028;-84
2024/01/05 11:34:34;;;;;;;2.85;1.50;;;;;;;;;;5055553;28;20403;-84
2024/01/05 11:37:01;;;;;;;4.28;2.17;;;;;;;;;;5039559;28;20101;-85
2024/01/05 11:39:47;;;;;;;6.88;3.45;;;;;;;;;;5051229;28;20023;-84
2024/01/05 11:42:24;;;;;;;7.15;3.70;;;;;;;;;;5051659;28;20087;-85
2024/01/05 11:44:51;;;;;;;7.53;4.57;;;;;;;;;;5049539;28;20633;-86
2024/01/05 11:47:41;;;;;;;5.85;2.70;;;;;;;;;;5047798;28;20078;-83
2024/01/05 11:50:26;;;;;;;5.32;2.20;;;;;;;;;;5050860;28;20033;-84
2024/01/05 11:53:06;;;;;;;7.40;4.13;;;;;;;;;;5051107;28;20115;-84
2024/01/05 11:55:39;;;;;;;10.63;5.00;;;;;;;;;;5044138;28;20040;-84
2024/01/05 11:58:05;;;;;;;7.57;4.68;;;;;;;;;;5045411;28;20094;-85
2024/01/05 12:00:31;;;;;;;5.05;3.40;;;;;;;;;;5050409;28;20033;-82
2024/01/05 12:03:01;;;;;;;8.05;4.10;;;;;;;;;;5044607;28;20372;-84
2024/01/05 12:05:27;;;;;;;6.18;3.10;;;;;;;;;;5047555;28;20037;-83
2024/01/05 12:07:56;;;;;;;5.93;2.40;;;;;;;;;;5025271;28;20943;-84
2024/01/05 12:10:25;;;;;;;5.88;2.65;;;;;;;;;;5045265;28;20483;-82
2024/01/05 12:12:51;;;;;;;4.40;2.80;;;;;;;;;;5045780;28;20032;-84
2024/01/05 12:15:17;;;;;;;4.45;2.75;;;;;;;;;;5042743;28;20415;-84
2024/01/05 12:17:43;;;;;;;4.78;2.60;;;;;;;;;;5048949;28;20079;-82
2024/01/05 12:20:10;;;;;;;4.70;3.20;;;;;;;;;;5055665;28;20411;-86
2024/01/05 12:22:36;;;;;;;6.55;3.50;;;;;;;;;;5034497;28;20033;-84
2024/01/05 12:25:03;;;;;;;5.82;2.80;;;;;;;;;;5051460;28;20439;-84
2024/01/05 12:27:49;;;;;;;4.55;2.35;;;;;;;;;;5046921;28;20037;-83
2024/01/05 12:30:14;;;;;;;4.75;2.80;;;;;;;;;;5042483;28;20047;-84
2024/01/05 12:32:40;;;;;;;7.65;2.85;;;;;;;;;;5049691;28;20108;-85
2024/01/05 12:35:06;;;;;;;10.63;2.63;;;;;;;;;;5043096;28;20419;-82
2024/01/05 12:37:32;;;;;;;5.00;2.85;;;;;;;;;;5042434;28;20039;-82
2024/01/05 12:40:10;;;;;;;4.03;2.00;;;;;;;;;;5049201;28;20037;-83
2024/01/05 12:42:39;;;;;;;6.07;3.20;;;;;;;;;;5050898;28;20116;-83
2024/01/05 12:45:05;;;;;;;7.18;3.33;;;;;;;;;;5049553;28;20017;-82
2024/01/05 12:47:34;;;;;;;5.35;2.30;;;;;;;;;;5047559;28;20041;-82
2024/01/05 12:50:01;;;;;;;6.60;3.30;;;;;;;;;;5045536;28;20147;-83
2024/01/05 12:52:36;;;;;;;4.47;2.83;;;;;;;;;;5049104;28;20036;-83
2024/01/05 12:55:03;;;;;;;6.05;3.35;;;;;;;;;;5028435;28;20103;-83
2024/01/05 12:57:30;;;;;;;6.45;3.42;;;;;;;;;;5044417;28;20037;-83
2024/01/05 13:00:00;;;;;;;7.85;3.00;;;;;;;;;;5046506;28;20037;-81
2024/01/05 13:02:26;;;;;;;3.88;2.50;;;;;;;;;;5028407;28;20052;-83
2024/01/05 13:04:51;;;;;;;6.63;2.90;;;;;;;;;;5047092;28;20037;-83
2024/01/05 13:07:17;;;;;;;5.50;2.40;;;;;;;;;;5053266;28;20082;-83
2024/01/05 13:09:42;;;;;;;4.13;2.40;;;;;;;;;;5047816;28;20079;-83
2024/01/05 13:12:08;;;;;;;9.25;3.90;;;;;;;;;;5047211;28;20029;-83
2024/01/05 13:14:34;;;;;;;6.15;3.00;;;;;;;;;;5027636;28;20047;-82
2024/01/05 13:17:00;;;;;;;8.35;4.03;;;;;;;;;;5046770;28;20033;-83
2024/01/05 13:19:26;;;;;;;4.70;2.80;;;;;;;;;;5046331;28;20529;-83
2024/01/05 13:21:54;;;;;;;4.95;2.45;;;;;;;;;;5048247;28;20056;-80
2024/01/05 13:24:20;;;;;;;4.05;2.10;;;;;;;;;;5050774;28;20467;-84
2024/01/05 13:26:45;;;;;;;4.40;1.90;;;;;;;;;;5038618;28;20108;-84
2024/01/05 13:29:11;;;;;;;5.72;2.20;;;;;;;;;;5053831;28;20168;-82
2024/01/05 13:31:36;;;;;;;4.63;2.65;;;;;;;;;;5046073;28;20047;-82
2024/01/05 13:34:02;;;;;;;4.82;2.60;;;;;;;;;;5050831;28;20483;-83
2024/01/05 13:36:27;;;;;;;4.80;2.90;;;;;;;;;;5052788;28;20029;-82
2024/01/05 13:38:53;;;;;;;7.63;3.97;;;;;;;;;;5047943;28;20415;-82
2024/01/05 13:41:18;;;;;;;7.18;3.65;;;;;;;;;;5046241;28;20032;-82
2024/01/05 13:43:44;;;;;;;5.68;3.10;;;;;;;;;;5051478;28;20029;-81
2024/01/05 13:46:09;;;;;;;5.70;2.30;;;;;;;;;;5056314;28;20518;-84
2024/01/05 13:48:35;;;;;;;6.53;2.60;;;;;;;;;;5038592;28;20035;-82
2024/01/05 13:51:01;;;;;;;3.78;2.45;;;;;;;;;;5018590;28;20037;-84
2024/01/05 13:53:26;;;;;;;5.95;3.30;;;;;;;;;;5028584;28;20522;-83
2024/01/05 13:55:52;;;;;;;6.18;3.42;;;;;;;;;;5032917;28;20040;-80
2024/01/05 13:58:17;;;;;;;5.35;3.15;;;;;;;;;;5032265;28;20033;-82
2024/01/05 14:00:47;;;;;;;6.05;2.92;;;;;;;;;;5026924;28;20796;-83
2024/01/05 14:03:13;;;;;;;4.25;2.40;;;;;;;;;;5030315;28;20044;-82
2024/01/05 14:05:38;;;;;;;4.90;2.60;;;;;;;;;;5034486;28;20029;-82
2024/01/05 14:08:04;;;;;;;7.88;3.97;;;;;;;;;;5054801;28;20024;-84
2024/01/05 14:10:30;;;;;;;7.97;4.07;;;;;;;;;;5030325;28;20495;-81
2024/01/05 14:12:55;;;;;;;10.68;5.97;;;;;;;;;;5033911;28;20144;-83
2024/01/05 14:15:21;;;;;;;6.65;3.78;;;;;;;;;;5046896;28;20017;-82
2024/01/05 14:17:46;;;;;;;7.53;3.80;;;;;;;;;;5034404;28;20060;-83
2024/01/05 14:20:12;;;;;;;6.35;3.53;;;;;;;;;;5045993;28;20041;-83
2024/01/05 14:22:38;;;;;;;6.32;3.17;;;;;;;;;;5049098;28;20025;-82
2024/01/05 14:25:06;;;;;;;6.05;3.20;;;;;;;;;;5049117;28;20040;-83
2024/01/05 14:27:32;;;;;;;8.05;3.38;;;;;;;;;;5033602;28;20039;-83
2024/01/05 14:29:57;;;;;;;7.45;3.42;;;;;;;;;;5032693;28;20037;-84
2024/01/05 14:32:23;;;;;;;7.18;2.95;;;;;;;;;;5045215;28;20108;-83
2024/01/05 14:34:48;;;;;;;9.85;4.60;;;;;;;;;;5037526;28;20033;-83
2024/01/05 14:37:14;;;;;;;7.07;3.60;;;;;;;;;;5048736;28;20376;-82
2024/01/05 14:39:39;;;;;;;6.35;3.22;;;;;;;;;;5047926;28;20047;-83
2024/01/05 14:42:05;;;;;;;5.05;2.80;;;;;;;;;;5044517;28;20030;-82